Time;durP1;ratioP1;P1;durP2;ratioP2;P2;SDS_P1;SDS_P2;PMS_P1;PMS_P2;Temp;Humidity;BMP_temperature;BMP_pressure;BME280_temperature;BME280_humidity;BME280_pressure;Samples;Min_cycle;Max_cycle;Signal;HPM_P1;HPM_P2
2023/08/17 00:00:18;;;;;;;0.68;0.68;;;24.00;68.50;;;;;;5052440;28;20055;-35
2023/08/17 00:02:44;;;;;;;;;;;24.00;68.60;;;;;;5048557;28;20037;-35
2023/08/17 00:05:10;;;;;;;0.70;0.70;;;24.00;68.70;;;;;;5051157;28;19924;-35
2023/08/17 00:07:36;;;;;;;0.50;0.50;;;24.00;68.70;;;;;;5048032;28;20075;-35
2023/08/17 00:10:03;;;;;;;0.60;0.60;;;24.00;68.70;;;;;;5049353;28;20040;-36
2023/08/17 00:12:29;;;;;;;0.50;0.50;;;24.00;68.50;;;;;;5035178;28;20028;-35
2023/08/17 00:14:55;;;;;;;0.50;0.50;;;24.00;68.70;;;;;;5050362;28;20099;-34
2023/08/17 00:17:21;;;;;;;0.50;0.50;;;24.00;68.60;;;;;;5053054;28;20025;-35
2023/08/17 00:19:48;;;;;;;0.45;0.45;;;24.10;68.80;;;;;;5062181;28;20025;-35
2023/08/17 00:22:14;;;;;;;0.55;0.55;;;24.10;68.90;;;;;;5059009;28;20052;-35
2023/08/17 00:24:41;;;;;;;0.60;0.60;;;24.10;68.90;;;;;;5049605;28;20025;-35
2023/08/17 00:27:07;;;;;;;0.60;0.57;;;24.10;69.10;;;;;;5061487;28;20036;-35
2023/08/17 00:29:35;;;;;;;1.03;0.70;;;24.10;69.20;;;;;;5053795;28;20059;-35
2023/08/17 00:32:01;;;;;;;;;;;24.10;69.20;;;;;;5053826;28;20033;-35
2023/08/17 00:34:27;;;;;;;0.70;0.70;;;24.10;69.40;;;;;;5050720;28;19921;-35
2023/08/17 00:37:14;;;;;;;0.70;0.70;;;24.10;69.50;;;;;;4963389;28;20051;-34
2023/08/17 00:39:40;;;;;;;1.00;0.90;;;24.10;69.50;;;;;;4964859;28;20097;-35
2023/08/17 00:42:07;;;;;;;0.60;0.60;;;24.10;69.50;;;;;;4967036;28;20046;-35
2023/08/17 00:44:34;;;;;;;0.70;0.70;;;24.10;69.50;;;;;;4970975;28;20042;-34
2023/08/17 00:47:00;;;;;;;0.63;0.63;;;24.10;69.70;;;;;;4969786;28;20077;-35
2023/08/17 00:49:26;;;;;;;0.68;0.60;;;24.10;69.60;;;;;;4965774;28;20058;-35
2023/08/17 00:51:52;;;;;;;0.50;0.50;;;24.10;69.60;;;;;;4972349;28;20059;-35
2023/08/17 00:54:23;;;;;;;0.70;0.70;;;24.10;69.50;;;;;;4973368;28;20050;-35
2023/08/17 00:56:49;;;;;;;1.20;0.60;;;24.10;69.60;;;;;;4972531;28;20489;-35
2023/08/17 00:59:15;;;;;;;0.80;0.73;;;24.20;69.60;;;;;;4978516;28;20035;-35
2023/08/17 01:01:42;;;;;;;2.08;0.80;;;24.20;69.80;;;;;;4979881;28;20066;-35
2023/08/17 01:04:08;;;;;;;0.90;0.70;;;24.20;69.80;;;;;;4964808;28;20038;-35
2023/08/17 01:06:34;;;;;;;1.10;0.80;;;24.20;69.80;;;;;;4968651;28;20026;-36
2023/08/17 01:09:00;;;;;;;0.70;0.70;;;24.20;70.00;;;;;;4968097;28;20066;-35
2023/08/17 01:11:37;;;;;;;0.70;0.70;;;24.20;70.10;;;;;;4965501;28;20038;-35
2023/08/17 01:14:27;;;;;;;0.77;0.77;;;24.20;70.10;;;;;;4999465;28;20040;-35
2023/08/17 01:17:07;;;;;;;0.80;0.77;;;24.20;70.20;;;;;;5031399;28;20120;-34
2023/08/17 01:19:33;;;;;;;1.70;0.88;;;24.20;70.20;;;;;;5035510;28;20097;-35
2023/08/17 01:22:04;;;;;;;0.80;0.80;;;24.20;70.20;;;;;;5019598;28;20026;-34
2023/08/17 01:24:30;;;;;;;0.68;0.63;;;24.20;70.30;;;;;;5049934;28;20025;-34
2023/08/17 01:26:56;;;;;;;0.88;0.88;;;24.20;70.10;;;;;;5056294;28;20109;-35
2023/08/17 01:29:22;;;;;;;0.70;0.70;;;24.20;70.10;;;;;;5053295;28;20033;-34
2023/08/17 01:32:02;;;;;;;0.85;0.85;;;24.20;70.20;;;;;;5038087;28;20057;-35
2023/08/17 01:34:28;;;;;;;0.73;0.73;;;24.20;70.30;;;;;;5039163;28;20563;-34
2023/08/17 01:37:14;;;;;;;0.90;0.90;;;24.20;70.30;;;;;;5001923;28;20046;-34
2023/08/17 01:39:45;;;;;;;0.80;0.80;;;24.20;70.20;;;;;;4986131;28;20066;-34
2023/08/17 01:42:12;;;;;;;0.80;0.80;;;24.20;70.30;;;;;;5001018;28;20035;-35
2023/08/17 01:44:39;;;;;;;1.15;1.05;;;24.20;70.30;;;;;;4978371;28;20030;-35
2023/08/17 01:47:05;;;;;;;0.80;0.80;;;24.20;70.30;;;;;;4994578;28;20044;-34
2023/08/17 01:49:31;;;;;;;0.80;0.80;;;24.20;70.40;;;;;;4995264;28;20190;-35
2023/08/17 01:51:57;;;;;;;0.70;0.70;;;24.20;70.50;;;;;;4994292;28;20040;-35
2023/08/17 01:54:24;;;;;;;0.60;0.60;;;24.20;70.60;;;;;;4994756;28;20051;-34
2023/08/17 01:56:50;;;;;;;1.00;0.80;;;24.20;70.50;;;;;;4995074;28;20031;-35
2023/08/17 01:59:16;;;;;;;0.80;0.80;;;24.20;70.40;;;;;;4994617;28;21223;-35
2023/08/17 02:01:42;;;;;;;2.20;0.73;;;24.20;70.40;;;;;;4994969;28;20046;-35
2023/08/17 02:04:09;;;;;;;2.47;0.97;;;24.20;70.30;;;;;;4994677;28;20031;-35
2023/08/17 02:06:35;;;;;;;0.70;0.70;;;24.20;70.20;;;;;;4994280;28;20034;-35
2023/08/17 02:09:01;;;;;;;1.00;0.90;;;24.20;70.10;;;;;;4994689;28;20080;-35
2023/08/17 02:11:27;;;;;;;0.93;0.93;;;24.20;70.10;;;;;;4994511;28;20031;-34
2023/08/17 02:13:53;;;;;;;0.80;0.80;;;24.20;69.90;;;;;;5018565;28;20094;-34
2023/08/17 02:16:19;;;;;;;1.05;0.82;;;24.20;69.80;;;;;;5061945;28;20041;-35
2023/08/17 02:18:46;;;;;;;1.13;1.03;;;24.20;69.80;;;;;;5059993;28;20033;-34
2023/08/17 02:21:12;;;;;;;0.70;0.70;;;24.20;70.20;;;;;;5062219;28;20036;-34
2023/08/17 02:23:38;;;;;;;0.80;0.75;;;24.20;70.30;;;;;;5062680;28;20057;-35
2023/08/17 02:26:04;;;;;;;1.48;0.73;;;24.20;70.50;;;;;;5061255;28;20017;-35
2023/08/17 02:28:30;;;;;;;0.75;0.75;;;24.20;70.40;;;;;;5052392;28;20065;-34
2023/08/17 02:30:57;;;;;;;1.52;0.73;;;24.20;70.60;;;;;;5045943;28;20033;-35
2023/08/17 02:33:24;;;;;;;1.17;0.68;;;24.20;70.60;;;;;;5038470;28;20049;-34
2023/08/17 02:35:50;;;;;;;0.80;0.80;;;24.20;70.60;;;;;;5063790;28;20082;-35
2023/08/17 02:38:16;;;;;;;0.90;0.80;;;24.20;70.50;;;;;;5060924;28;20051;-34
2023/08/17 02:40:43;;;;;;;0.97;0.80;;;24.20;70.30;;;;;;5044807;28;20037;-34
2023/08/17 02:43:09;;;;;;;1.10;1.00;;;24.20;70.10;;;;;;5047719;28;20062;-35
2023/08/17 02:45:37;;;;;;;1.15;0.80;;;24.20;69.90;;;;;;5048573;28;20131;-35
2023/08/17 02:48:03;;;;;;;1.23;0.80;;;24.20;69.70;;;;;;5049206;28;20061;-35
2023/08/17 02:50:30;;;;;;;1.25;0.70;;;24.20;69.70;;;;;;5050473;28;20033;-34
2023/08/17 02:52:56;;;;;;;0.98;0.90;;;24.10;69.70;;;;;;5048361;28;20100;-35
2023/08/17 02:55:22;;;;;;;0.70;0.70;;;24.20;69.80;;;;;;5051193;28;20028;-35
2023/08/17 02:57:48;;;;;;;0.90;0.90;;;24.20;69.90;;;;;;5047772;28;20278;-35
2023/08/17 03:00:15;;;;;;;0.80;0.80;;;24.20;70.30;;;;;;5053215;28;20057;-34
2023/08/17 03:02:41;;;;;;;1.38;0.70;;;24.20;70.60;;;;;;5048206;28;20151;-35
2023/08/17 03:05:07;;;;;;;0.70;0.70;;;24.10;70.50;;;;;;5052571;28;20033;-35
2023/08/17 03:07:33;;;;;;;0.90;0.90;;;24.10;70.70;;;;;;5051349;28;20072;-35
2023/08/17 03:09:59;;;;;;;0.95;0.77;;;24.10;70.70;;;;;;5048668;28;20486;-35
2023/08/17 03:12:26;;;;;;;0.60;0.60;;;24.10;70.60;;;;;;5050215;28;20064;-34
2023/08/17 03:14:52;;;;;;;1.35;0.73;;;24.10;70.60;;;;;;5047956;28;20029;-35
2023/08/17 03:17:18;;;;;;;0.87;0.87;;;24.10;70.40;;;;;;5054811;28;20047;-34
2023/08/17 03:19:44;;;;;;;0.75;0.75;;;24.10;70.10;;;;;;5055541;28;20025;-35
2023/08/17 03:22:10;;;;;;;0.57;0.57;;;24.10;70.00;;;;;;5046163;28;20034;-35
2023/08/17 03:24:36;;;;;;;1.10;0.60;;;24.10;70.00;;;;;;5061844;28;20033;-34
2023/08/17 03:27:02;;;;;;;1.02;0.90;;;24.10;70.00;;;;;;5054265;28;20072;-35
2023/08/17 03:29:29;;;;;;;0.80;0.80;;;24.10;70.00;;;;;;5048638;28;20033;-34
2023/08/17 03:31:55;;;;;;;1.02;0.90;;;24.10;70.00;;;;;;5050555;28;20640;-34
2023/08/17 03:34:22;;;;;;;0.97;0.80;;;24.10;70.20;;;;;;5057754;28;20053;-36
2023/08/17 03:36:48;;;;;;;0.90;0.87;;;24.10;70.70;;;;;;5051174;28;20526;-34
2023/08/17 03:39:14;;;;;;;0.77;0.77;;;24.10;70.90;;;;;;5044489;28;20040;-35
2023/08/17 03:41:41;;;;;;;1.00;0.90;;;24.10;71.00;;;;;;5050791;28;20037;-35
2023/08/17 03:44:09;;;;;;;1.25;0.70;;;24.10;71.10;;;;;;5042083;28;20033;-35
2023/08/17 03:46:35;;;;;;;1.27;0.80;;;24.10;71.10;;;;;;5041963;28;20033;-35
2023/08/17 03:49:01;;;;;;;1.27;0.80;;;24.00;71.10;;;;;;5043290;28;20029;-35
2023/08/17 03:51:27;;;;;;;0.70;0.70;;;24.00;71.10;;;;;;5043943;28;20036;-35
2023/08/17 03:53:53;;;;;;;1.13;0.70;;;24.00;70.70;;;;;;5043692;28;20060;-34
2023/08/17 03:56:20;;;;;;;0.88;0.75;;;24.00;70.60;;;;;;5044658;28;20063;-37
2023/08/17 03:58:46;;;;;;;0.80;0.80;;;24.00;70.30;;;;;;5026904;28;20033;-34
2023/08/17 04:01:13;;;;;;;0.98;0.85;;;24.00;70.30;;;;;;5044147;28;20095;-35
2023/08/17 04:03:39;;;;;;;0.90;0.90;;;24.00;70.20;;;;;;5046943;28;20036;-34
2023/08/17 04:06:10;;;;;;;1.00;1.00;;;24.00;70.30;;;;;;5041536;28;20049;-34
2023/08/17 04:08:37;;;;;;;0.90;0.90;;;24.00;70.30;;;;;;5043808;28;20122;-35
2023/08/17 04:11:04;;;;;;;0.82;0.82;;;24.00;70.30;;;;;;5043559;28;20033;-34
2023/08/17 04:13:30;;;;;;;0.93;0.90;;;24.00;70.50;;;;;;5054322;28;20057;-34
2023/08/17 04:15:56;;;;;;;0.80;0.80;;;24.00;70.60;;;;;;5053836;28;20033;-34
2023/08/17 04:18:22;;;;;;;0.88;0.88;;;24.00;71.10;;;;;;5060308;28;20033;-34
2023/08/17 04:20:49;;;;;;;1.57;0.90;;;24.00;71.30;;;;;;5061010;28;20096;-34
2023/08/17 04:23:15;;;;;;;0.82;0.73;;;24.00;71.20;;;;;;5058797;28;20968;-33
2023/08/17 04:25:42;;;;;;;0.93;0.82;;;24.00;71.20;;;;;;5059616;28;20044;-34
2023/08/17 04:28:08;;;;;;;0.88;0.88;;;24.00;71.40;;;;;;5052355;28;20081;-34
2023/08/17 04:30:34;;;;;;;1.17;0.98;;;24.00;71.10;;;;;;5050658;28;20048;-34
2023/08/17 04:33:00;;;;;;;1.23;0.82;;;24.00;70.80;;;;;;5050413;28;20105;-34
2023/08/17 04:35:26;;;;;;;1.30;1.07;;;23.90;70.70;;;;;;5053544;28;20029;-34
2023/08/17 04:37:52;;;;;;;0.80;0.80;;;23.90;70.70;;;;;;5043000;28;20017;-34
2023/08/17 04:40:19;;;;;;;0.90;0.90;;;23.90;70.70;;;;;;5059431;28;20032;-34
2023/08/17 04:42:45;;;;;;;1.25;0.80;;;23.90;70.70;;;;;;5057382;28;20032;-34
2023/08/17 04:45:11;;;;;;;1.02;1.00;;;23.90;70.70;;;;;;5061031;28;20131;-34
2023/08/17 04:47:37;;;;;;;0.90;0.90;;;23.90;70.70;;;;;;5058542;28;20029;-34
2023/08/17 04:50:04;;;;;;;1.07;0.90;;;23.90;70.80;;;;;;5057131;28;20042;-34
2023/08/17 04:52:30;;;;;;;1.15;1.02;;;23.90;70.90;;;;;;5063166;28;20021;-33
2023/08/17 04:54:56;;;;;;;1.10;1.00;;;23.90;71.20;;;;;;5057379;28;20041;-34
2023/08/17 04:57:22;;;;;;;1.25;0.90;;;23.90;71.20;;;;;;5056430;28;20067;-34
2023/08/17 04:59:48;;;;;;;1.20;1.10;;;23.90;71.30;;;;;;5064148;28;20049;-34
2023/08/17 05:02:14;;;;;;;1.23;0.98;;;23.90;71.20;;;;;;5062388;28;20025;-34
2023/08/17 05:04:41;;;;;;;1.00;0.90;;;23.80;71.30;;;;;;5046927;28;20461;-34
2023/08/17 05:07:08;;;;;;;;;;;23.80;71.30;;;;;;5048501;28;20025;-34
2023/08/17 05:09:34;;;;;;;0.88;0.75;;;23.80;71.30;;;;;;5059645;28;19925;-34
2023/08/17 05:12:01;;;;;;;1.10;1.00;;;23.80;71.30;;;;;;5054331;28;20044;-34
2023/08/17 05:14:27;;;;;;;1.13;1.00;;;23.80;71.20;;;;;;5051428;28;20282;-34
2023/08/17 05:16:53;;;;;;;0.90;0.90;;;23.80;71.40;;;;;;5046035;28;20038;-34
2023/08/17 05:19:19;;;;;;;1.88;0.98;;;23.80;71.50;;;;;;5054485;28;20112;-34
2023/08/17 05:21:45;;;;;;;1.38;0.98;;;23.80;71.50;;;;;;5046514;28;20033;-34
2023/08/17 05:24:12;;;;;;;1.15;1.05;;;23.80;71.50;;;;;;5050520;28;20033;-34
2023/08/17 05:26:38;;;;;;;1.02;1.02;;;23.80;71.70;;;;;;5056540;28;20586;-34
2023/08/17 05:29:04;;;;;;;0.80;0.80;;;23.80;71.60;;;;;;5054713;28;20108;-34
2023/08/17 05:31:30;;;;;;;1.30;0.85;;;23.70;71.70;;;;;;5036913;28;20143;-34
2023/08/17 05:33:56;;;;;;;1.10;1.00;;;23.70;71.70;;;;;;5055674;28;20102;-34
2023/08/17 05:36:22;;;;;;;0.80;0.75;;;23.70;71.60;;;;;;5050859;28;20544;-34
2023/08/17 05:38:48;;;;;;;0.90;0.90;;;23.70;71.70;;;;;;5053242;28;20072;-34
2023/08/17 05:41:17;;;;;;;1.52;1.00;;;23.70;71.80;;;;;;5057183;28;20093;-34
2023/08/17 05:43:43;;;;;;;1.13;0.93;;;23.70;71.90;;;;;;5053450;28;20037;-34
2023/08/17 05:46:09;;;;;;;0.77;0.77;;;23.70;71.90;;;;;;5057173;28;20769;-34
2023/08/17 05:48:36;;;;;;;0.83;0.70;;;23.70;71.80;;;;;;5038647;28;20037;-34
2023/08/17 05:51:02;;;;;;;0.88;0.88;;;23.70;71.90;;;;;;5053340;28;20222;-34
2023/08/17 05:53:28;;;;;;;1.30;1.10;;;23.70;71.80;;;;;;5054915;28;20051;-34
2023/08/17 05:55:54;;;;;;;1.33;1.10;;;23.70;71.90;;;;;;5055389;28;20036;-34
2023/08/17 05:58:20;;;;;;;1.60;1.10;;;23.60;71.90;;;;;;5054195;28;20059;-35
2023/08/17 06:00:46;;;;;;;0.90;0.90;;;23.60;71.90;;;;;;5059340;28;20045;-35
2023/08/17 06:03:13;;;;;;;1.63;1.00;;;23.60;72.00;;;;;;5061945;28;20124;-35
2023/08/17 06:05:40;;;;;;;1.75;1.00;;;23.60;72.00;;;;;;5054671;28;20029;-34
2023/08/17 06:08:06;;;;;;;1.83;1.00;;;23.60;72.10;;;;;;5046497;28;20036;-34
2023/08/17 06:10:32;;;;;;;1.08;0.77;;;23.60;72.20;;;;;;5026648;28;20097;-34
2023/08/17 06:12:59;;;;;;;2.00;1.00;;;23.60;72.10;;;;;;5045452;28;20026;-35
2023/08/17 06:15:25;;;;;;;1.02;0.93;;;23.60;72.10;;;;;;5053533;28;20088;-34
2023/08/17 06:17:51;;;;;;;0.90;0.90;;;23.60;72.20;;;;;;5056044;28;20025;-34
2023/08/17 06:20:18;;;;;;;0.90;0.90;;;23.60;72.30;;;;;;5059905;28;20021;-34
2023/08/17 06:22:44;;;;;;;1.20;1.00;;;23.60;72.30;;;;;;5059534;28;20032;-34
2023/08/17 06:25:10;;;;;;;1.20;1.10;;;23.60;72.30;;;;;;5061139;28;20029;-34
2023/08/17 06:27:36;;;;;;;3.42;0.90;;;23.60;72.20;;;;;;5055465;28;20048;-34
2023/08/17 06:30:03;;;;;;;0.83;0.83;;;23.50;72.10;;;;;;5052498;28;20045;-34
2023/08/17 06:32:32;;;;;;;1.45;1.00;;;23.50;72.20;;;;;;5051683;28;20034;-35
2023/08/17 06:34:58;;;;;;;0.90;0.90;;;23.50;72.30;;;;;;5045461;28;20041;-34
2023/08/17 06:37:26;;;;;;;0.90;0.90;;;23.50;72.30;;;;;;5055837;28;20052;-34
2023/08/17 06:39:52;;;;;;;1.00;1.00;;;23.50;72.20;;;;;;5052828;28;20025;-34
2023/08/17 06:42:18;;;;;;;0.85;0.85;;;23.50;73.20;;;;;;5045163;28;20059;-34
2023/08/17 06:44:44;;;;;;;1.30;0.80;;;23.50;72.50;;;;;;5052342;28;20033;-34
2023/08/17 06:47:10;;;;;;;2.85;0.95;;;23.50;72.50;;;;;;5044716;28;20116;-34
2023/08/17 06:49:36;;;;;;;1.08;0.98;;;23.50;72.60;;;;;;5057585;28;20049;-35
2023/08/17 06:52:03;;;;;;;0.77;0.77;;;23.50;72.60;;;;;;5060147;28;20021;-34
2023/08/17 06:54:29;;;;;;;1.15;1.05;;;23.50;72.60;;;;;;5056704;28;20029;-34
2023/08/17 06:56:55;;;;;;;1.00;1.00;;;23.50;72.60;;;;;;5063242;28;20034;-34
2023/08/17 06:59:22;;;;;;;0.95;0.90;;;23.40;72.60;;;;;;5060940;28;20025;-34
2023/08/17 07:01:48;;;;;;;1.77;1.13;;;23.40;72.50;;;;;;5067011;28;20029;-35
2023/08/17 07:04:14;;;;;;;0.77;0.77;;;23.40;72.60;;;;;;5063698;28;20740;-34
2023/08/17 07:06:41;;;;;;;0.80;0.80;;;23.40;72.50;;;;;;5056194;28;20028;-34
2023/08/17 07:09:07;;;;;;;1.10;1.00;;;23.40;72.50;;;;;;5054987;28;20045;-34
2023/08/17 07:11:33;;;;;;;1.50;1.00;;;23.40;72.50;;;;;;5068032;28;20025;-34
2023/08/17 07:13:59;;;;;;;1.10;1.00;;;23.40;72.50;;;;;;5064406;28;20285;-35
2023/08/17 07:16:25;;;;;;;1.13;1.03;;;23.40;72.60;;;;;;5050589;28;20036;-34
2023/08/17 07:18:51;;;;;;;2.15;1.10;;;23.40;72.50;;;;;;5050248;28;20035;-34
2023/08/17 07:21:17;;;;;;;1.00;0.98;;;23.40;72.60;;;;;;5049358;28;20087;-34
2023/08/17 07:23:45;;;;;;;1.23;1.05;;;23.40;72.70;;;;;;5049829;28;20025;-35
2023/08/17 07:26:11;;;;;;;1.50;1.15;;;23.30;72.70;;;;;;5034985;28;20029;-34
2023/08/17 07:28:37;;;;;;;1.48;1.02;;;23.30;72.70;;;;;;5054727;28;20044;-34
2023/08/17 07:31:05;;;;;;;1.02;0.90;;;23.30;72.70;;;;;;5052444;28;20680;-35
2023/08/17 07:33:31;;;;;;;1.48;1.00;;;23.30;72.70;;;;;;5047951;28;20095;-35
2023/08/17 07:35:58;;;;;;;1.10;1.00;;;23.30;72.80;;;;;;5049771;28;20021;-34
2023/08/17 07:38:24;;;;;;;0.77;0.77;;;23.30;72.80;;;;;;5014201;28;20751;-34
2023/08/17 07:40:50;;;;;;;1.10;0.93;;;23.30;72.80;;;;;;5056987;28;20110;-34
2023/08/17 07:43:16;;;;;;;1.25;1.15;;;23.30;72.80;;;;;;5053337;28;20037;-34
2023/08/17 07:45:43;;;;;;;1.00;0.85;;;23.30;72.90;;;;;;5041864;28;20059;-34
2023/08/17 07:48:09;;;;;;;1.05;0.95;;;23.30;72.90;;;;;;5044388;28;20029;-34
2023/08/17 07:50:35;;;;;;;2.08;1.20;;;23.30;73.00;;;;;;5042181;28;20147;-34
2023/08/17 07:53:01;;;;;;;2.30;1.00;;;23.20;73.00;;;;;;5046986;28;20036;-34
2023/08/17 07:55:27;;;;;;;1.65;0.98;;;23.30;73.00;;;;;;5046164;28;20092;-34
2023/08/17 07:57:53;;;;;;;1.20;1.10;;;23.20;73.10;;;;;;5045797;28;20025;-34
2023/08/17 08:00:20;;;;;;;1.42;0.80;;;23.20;73.10;;;;;;5046934;28;20271;-34
2023/08/17 08:02:46;;;;;;;3.85;1.10;;;23.20;73.30;;;;;;5049303;28;20383;-34
2023/08/17 08:05:14;;;;;;;1.10;1.00;;;23.20;73.20;;;;;;5048837;28;20048;-34
2023/08/17 08:07:40;;;;;;;1.08;1.00;;;23.20;73.10;;;;;;5049960;28;20045;-35
2023/08/17 08:10:07;;;;;;;1.17;1.05;;;23.20;73.20;;;;;;5047488;28;20046;-36
2023/08/17 08:12:34;;;;;;;1.33;1.00;;;23.20;73.10;;;;;;5050553;28;20045;-35
2023/08/17 08:15:00;;;;;;;1.42;1.20;;;23.20;73.20;;;;;;5047081;28;20103;-35
2023/08/17 08:17:26;;;;;;;0.90;0.90;;;23.20;73.20;;;;;;5059299;28;20076;-34
2023/08/17 08:19:54;;;;;;;1.20;1.10;;;23.20;73.10;;;;;;5073984;28;20498;-35
2023/08/17 08:22:20;;;;;;;1.25;0.90;;;23.20;73.20;;;;;;5059506;28;20025;-35
2023/08/17 08:24:46;;;;;;;1.40;1.10;;;23.10;73.10;;;;;;5055480;28;20037;-35
2023/08/17 08:27:12;;;;;;;0.90;0.90;;;23.10;73.30;;;;;;5058371;28;20088;-35
2023/08/17 08:29:39;;;;;;;2.05;0.98;;;23.10;73.20;;;;;;5056504;28;20044;-35
2023/08/17 08:32:05;;;;;;;1.08;0.98;;;23.10;73.20;;;;;;5055668;28;20104;-35
2023/08/17 08:34:31;;;;;;;1.73;1.25;;;23.10;73.30;;;;;;5051578;28;20077;-35
2023/08/17 08:36:58;;;;;;;0.88;0.88;;;23.10;73.40;;;;;;5052488;28;20056;-35
2023/08/17 08:39:26;;;;;;;0.93;0.88;;;23.10;73.40;;;;;;5051755;28;20029;-35
2023/08/17 08:41:52;;;;;;;1.63;1.40;;;23.10;73.40;;;;;;5057559;28;20036;-35
2023/08/17 08:44:18;;;;;;;1.00;1.00;;;23.10;73.40;;;;;;5057111;28;20549;-35
2023/08/17 08:46:45;;;;;;;1.08;0.98;;;23.10;73.40;;;;;;5055083;28;20033;-35
2023/08/17 08:49:12;;;;;;;0.90;0.90;;;23.10;73.50;;;;;;5051826;28;20057;-35
2023/08/17 08:51:46;;;;;;;1.13;1.00;;;23.10;73.60;;;;;;5056921;28;20033;-35
2023/08/17 08:54:32;;;;;;;1.27;1.17;;;23.10;73.60;;;;;;5000686;28;20042;-35
2023/08/17 08:57:04;;;;;;;1.10;1.00;;;23.10;73.60;;;;;;5003033;28;20049;-35
2023/08/17 08:59:30;;;;;;;1.70;1.20;;;23.00;73.50;;;;;;4996732;28;20039;-34
2023/08/17 09:01:57;;;;;;;1.30;1.20;;;23.00;73.60;;;;;;4986509;28;20041;-34
2023/08/17 09:04:24;;;;;;;2.00;1.00;;;23.00;73.60;;;;;;5002555;28;20740;-34
2023/08/17 09:06:50;;;;;;;1.30;1.13;;;23.00;73.60;;;;;;5003632;28;20094;-35
2023/08/17 09:09:17;;;;;;;1.20;1.10;;;23.00;73.60;;;;;;4986657;28;20061;-34
2023/08/17 09:11:43;;;;;;;1.48;1.05;;;23.00;73.60;;;;;;5003045;28;20567;-34
2023/08/17 09:14:09;;;;;;;1.20;1.10;;;23.00;73.50;;;;;;5002835;28;20761;-34
2023/08/17 09:16:35;;;;;;;1.05;1.00;;;23.00;73.60;;;;;;5003779;28;20045;-34
2023/08/17 09:19:01;;;;;;;1.10;1.00;;;23.00;73.60;;;;;;5002976;28;20053;-35
2023/08/17 09:21:31;;;;;;;1.40;1.00;;;23.00;73.60;;;;;;4996011;28;20042;-34
2023/08/17 09:24:18;;;;;;;1.20;1.10;;;23.00;73.60;;;;;;5002021;28;20173;-35
2023/08/17 09:26:44;;;;;;;0.95;0.90;;;22.90;73.50;;;;;;4925748;29;20787;-34
2023/08/17 09:29:17;;;;;;;1.05;0.93;;;22.90;73.50;;;;;;4925575;29;20067;-35
2023/08/17 09:31:44;;;;;;;1.38;1.05;;;22.90;73.60;;;;;;4942120;29;20094;-34
2023/08/17 09:34:10;;;;;;;0.95;0.95;;;22.90;73.70;;;;;;4963852;29;20082;-35
2023/08/17 09:36:37;;;;;;;1.20;0.77;;;22.90;73.70;;;;;;4964156;29;20031;-35
2023/08/17 09:39:03;;;;;;;1.90;1.00;;;22.90;73.70;;;;;;4963644;29;20103;-34
2023/08/17 09:41:29;;;;;;;1.10;1.00;;;22.90;73.80;;;;;;4963129;29;20043;-34
2023/08/17 09:43:55;;;;;;;1.58;1.02;;;22.90;73.70;;;;;;4961352;29;20115;-39
2023/08/17 09:46:21;;;;;;;1.67;1.10;;;22.90;73.80;;;;;;4956518;29;20031;-35
2023/08/17 09:48:48;;;;;;;1.85;1.33;;;22.90;73.90;;;;;;4956235;29;20063;-35
2023/08/17 09:51:16;;;;;;;1.40;1.30;;;22.80;73.70;;;;;;4957349;28;20047;-34
2023/08/17 09:53:43;;;;;;;1.83;1.10;;;22.80;73.80;;;;;;4957335;28;20027;-35
2023/08/17 09:56:10;;;;;;;0.90;0.90;;;22.80;73.70;;;;;;4957545;28;20032;-35
2023/08/17 09:58:38;;;;;;;1.55;1.02;;;22.80;73.70;;;;;;4956978;28;20070;-35
2023/08/17 10:01:05;;;;;;;1.45;1.00;;;22.80;73.80;;;;;;4957411;28;20045;-35
2023/08/17 10:03:34;;;;;;;1.05;1.00;;;22.80;73.80;;;;;;4994838;28;20041;-35
2023/08/17 10:06:04;;;;;;;1.20;1.10;;;22.80;73.70;;;;;;5052722;28;20036;-35
2023/08/17 10:08:31;;;;;;;1.63;1.10;;;22.80;73.70;;;;;;5052113;28;20085;-34
2023/08/17 10:10:57;;;;;;;1.50;1.10;;;22.80;73.80;;;;;;5050394;28;20145;-34
2023/08/17 10:13:38;;;;;;;1.60;0.85;;;22.80;73.80;;;;;;5054666;28;20040;-35
2023/08/17 10:16:24;;;;;;;1.42;1.20;;;22.80;73.80;;;;;;5063378;28;20037;-35
2023/08/17 10:19:09;;;;;;;1.20;1.10;;;22.80;73.90;;;;;;5071406;28;20842;-35
2023/08/17 10:21:41;;;;;;;1.10;1.00;;;22.70;74.00;;;;;;5058194;28;20060;-35
2023/08/17 10:24:08;;;;;;;1.25;1.15;;;22.70;73.90;;;;;;5064800;28;20093;-35
2023/08/17 10:26:34;;;;;;;1.92;1.30;;;22.70;74.00;;;;;;5062675;28;20039;-35
2023/08/17 10:29:02;;;;;;;1.85;1.30;;;22.70;73.90;;;;;;5046310;28;20021;-35
2023/08/17 10:31:29;;;;;;;1.42;1.20;;;22.70;74.00;;;;;;5041659;28;20047;-35
2023/08/17 10:33:55;;;;;;;;;;;22.70;73.90;;;;;;5055855;28;20045;-35
2023/08/17 10:36:21;;;;;;;1.67;1.20;;;22.70;73.90;;;;;;5043116;28;19908;-35
2023/08/17 10:38:48;;;;;;;1.23;1.13;;;22.70;73.90;;;;;;5046202;28;20091;-35
2023/08/17 10:41:14;;;;;;;1.58;1.17;;;22.70;74.00;;;;;;5070455;28;20033;-34
2023/08/17 10:43:59;;;;;;;1.30;1.20;;;22.70;74.00;;;;;;5048923;28;20036;-34
2023/08/17 10:46:35;;;;;;;1.75;1.23;;;22.70;74.10;;;;;;5056406;28;20047;-35
2023/08/17 10:49:05;;;;;;;1.27;1.10;;;22.70;74.00;;;;;;5064074;28;20067;-35
2023/08/17 10:51:32;;;;;;;1.38;1.27;;;22.70;74.00;;;;;;5063127;28;20094;-35
2023/08/17 10:54:04;;;;;;;1.20;1.10;;;22.60;74.00;;;;;;5071107;28;20035;-34
2023/08/17 10:56:30;;;;;;;1.92;1.20;;;22.60;74.10;;;;;;5074086;28;20035;-35
2023/08/17 10:59:01;;;;;;;1.38;1.02;;;22.60;74.10;;;;;;5072806;28;20028;-35
2023/08/17 11:01:36;;;;;;;1.45;1.13;;;22.60;75.00;;;;;;5067052;28;20036;-34
2023/08/17 11:04:12;;;;;;;1.30;1.20;;;22.60;74.20;;;;;;5048167;28;20085;-34
2023/08/17 11:06:39;;;;;;;1.20;1.10;;;22.60;74.20;;;;;;5069814;28;20068;-34
2023/08/17 11:09:08;;;;;;;1.55;1.10;;;22.60;74.20;;;;;;5054766;28;20029;-34
2023/08/17 11:11:55;;;;;;;1.15;1.05;;;22.60;74.20;;;;;;5051292;28;20037;-35
2023/08/17 11:14:21;;;;;;;1.60;1.50;;;22.60;74.20;;;;;;4979328;28;20041;-34
2023/08/17 11:16:47;;;;;;;1.33;1.23;;;22.60;74.20;;;;;;4979927;28;20595;-34
2023/08/17 11:19:13;;;;;;;2.10;1.17;;;22.60;74.20;;;;;;4978448;28;20046;-34
2023/08/17 11:21:39;;;;;;;1.20;1.10;;;22.60;74.20;;;;;;4969714;28;20888;-35
2023/08/17 11:24:09;;;;;;;2.60;1.25;;;22.60;74.20;;;;;;4964064;28;20096;-35
2023/08/17 11:26:35;;;;;;;1.27;1.08;;;22.50;74.20;;;;;;4975678;28;20043;-34
2023/08/17 11:29:01;;;;;;;1.30;1.20;;;22.60;74.30;;;;;;4961608;28;20150;-35
2023/08/17 11:31:27;;;;;;;1.48;1.10;;;22.50;74.40;;;;;;4969325;28;20075;-34
2023/08/17 11:33:53;;;;;;;1.30;1.20;;;22.50;74.30;;;;;;4962073;28;20114;-35
2023/08/17 11:36:21;;;;;;;1.77;1.27;;;22.50;74.30;;;;;;4965994;28;20035;-35
2023/08/17 11:38:47;;;;;;;1.20;1.10;;;22.50;74.40;;;;;;4976582;28;20050;-34
2023/08/17 11:41:15;;;;;;;1.48;1.38;;;22.50;74.30;;;;;;4973474;28;20121;-35
2023/08/17 11:43:42;;;;;;;1.30;1.20;;;22.50;74.40;;;;;;4963870;28;20078;-35
2023/08/17 11:46:08;;;;;;;1.27;1.10;;;22.50;74.50;;;;;;4958100;28;20069;-34
2023/08/17 11:48:34;;;;;;;1.23;1.10;;;22.50;74.50;;;;;;4972734;28;20049;-34
2023/08/17 11:51:01;;;;;;;1.38;1.20;;;22.50;74.40;;;;;;4995233;28;20049;-36
2023/08/17 11:53:34;;;;;;;1.38;1.10;;;22.50;74.50;;;;;;5048725;28;20033;-35
2023/08/17 11:56:00;;;;;;;1.00;1.00;;;22.50;74.50;;;;;;5030972;28;20060;-35
2023/08/17 11:58:40;;;;;;;1.57;1.30;;;22.40;74.40;;;;;;5036803;28;20875;-35
2023/08/17 12:01:10;;;;;;;1.20;1.10;;;22.40;74.40;;;;;;5049428;28;20317;-35
2023/08/17 12:03:36;;;;;;;1.20;1.10;;;22.40;74.50;;;;;;5046923;28;20033;-35
2023/08/17 12:06:02;;;;;;;1.92;1.25;;;22.50;74.50;;;;;;5049484;28;20545;-35
2023/08/17 12:08:29;;;;;;;1.25;1.15;;;22.40;74.50;;;;;;5049364;28;20036;-35
2023/08/17 12:10:55;;;;;;;1.60;1.50;;;22.40;74.50;;;;;;5035974;28;20045;-34
2023/08/17 12:13:33;;;;;;;1.53;1.23;;;22.40;74.50;;;;;;5049500;28;20021;-35
2023/08/17 12:15:59;;;;;;;1.25;1.13;;;22.40;74.60;;;;;;5053055;28;20560;-34
2023/08/17 12:18:26;;;;;;;1.42;1.30;;;22.40;74.60;;;;;;5062473;28;20035;-35
2023/08/17 12:20:53;;;;;;;1.30;1.20;;;22.40;74.70;;;;;;5062815;28;20033;-35
2023/08/17 12:23:19;;;;;;;1.48;1.38;;;22.40;74.60;;;;;;5040525;28;20089;-34
2023/08/17 12:25:45;;;;;;;1.20;1.02;;;22.40;74.70;;;;;;5062260;28;20040;-35
2023/08/17 12:28:15;;;;;;;1.85;1.30;;;22.40;74.70;;;;;;5064375;28;20025;-35
2023/08/17 12:30:41;;;;;;;1.60;1.08;;;22.40;74.70;;;;;;5066432;28;20033;-35
2023/08/17 12:33:07;;;;;;;2.30;1.17;;;22.40;74.70;;;;;;5066272;28;20110;-34
2023/08/17 12:35:33;;;;;;;1.17;1.08;;;22.40;74.70;;;;;;5060068;28;20029;-34
2023/08/17 12:37:59;;;;;;;1.20;1.10;;;22.30;74.70;;;;;;5054863;28;20482;-35
2023/08/17 12:40:26;;;;;;;1.65;1.30;;;22.30;74.70;;;;;;5051232;28;20030;-35
2023/08/17 12:42:52;;;;;;;1.17;1.08;;;22.30;74.80;;;;;;5054290;28;20067;-35
2023/08/17 12:45:18;;;;;;;1.38;1.20;;;22.30;74.80;;;;;;5036472;28;20029;-35
2023/08/17 12:47:44;;;;;;;1.37;1.27;;;22.30;74.80;;;;;;5050887;28;22085;-35